sensor_id;sensor_type;location;lat;lon;timestamp;temperature;humidity
12436;DHT22;6282;51.440;6.938;2022-10-16T00:01:18;14.00;99.90
12436;DHT22;6282;51.440;6.938;2022-10-16T00:03:45;13.90;99.90
12436;DHT22;6282;51.440;6.938;2022-10-16T00:06:15;13.80;99.90
12436;DHT22;6282;51.440;6.938;2022-10-16T00:08:43;13.90;99.90
12436;DHT22;6282;51.440;6.938;2022-10-16T00:11:11;13.90;99.90
12436;DHT22;6282;51.440;6.938;2022-10-16T00:13:40;13.80;99.90
12436;DHT22;6282;51.440;6.938;2022-10-16T00:16:09;13.80;99.90
12436;DHT22;6282;51.440;6.938;2022-10-16T00:18:36;13.80;99.90
12436;DHT22;6282;51.440;6.938;2022-10-16T00:21:05;13.80;99.90
12436;DHT22;6282;51.440;6.938;2022-10-16T00:23:33;13.80;99.90
12436;DHT22;6282;51.440;6.938;2022-10-16T00:26:02;13.80;99.90
12436;DHT22;6282;51.440;6.938;2022-10-16T00:28:30;13.80;99.90
12436;DHT22;6282;51.440;6.938;2022-10-16T00:30:57;13.90;99.90
12436;DHT22;6282;51.440;6.938;2022-10-16T00:33:24;13.90;99.90
12436;DHT22;6282;51.440;6.938;2022-10-16T00:35:51;13.90;99.90
12436;DHT22;6282;51.440;6.938;2022-10-16T00:38:18;13.80;99.90
12436;DHT22;6282;51.440;6.938;2022-10-16T00:40:46;13.80;99.90
12436;DHT22;6282;51.440;6.938;2022-10-16T00:43:32;13.80;99.90
12436;DHT22;6282;51.440;6.938;2022-10-16T00:46:00;14.00;99.90
12436;DHT22;6282;51.440;6.938;2022-10-16T00:48:28;13.90;99.90
12436;DHT22;6282;51.440;6.938;2022-10-16T00:50:56;13.90;99.90
12436;DHT22;6282;51.440;6.938;2022-10-16T00:53:24;13.90;99.90
12436;DHT22;6282;51.440;6.938;2022-10-16T00:55:52;13.80;99.90
12436;DHT22;6282;51.440;6.938;2022-10-16T00:58:20;13.80;99.90
12436;DHT22;6282;51.440;6.938;2022-10-16T01:00:47;13.80;99.90
12436;DHT22;6282;51.440;6.938;2022-10-16T01:03:26;13.80;99.90
12436;DHT22;6282;51.440;6.938;2022-10-16T01:06:02;13.80;99.90
12436;DHT22;6282;51.440;6.938;2022-10-16T01:08:38;13.80;99.90
12436;DHT22;6282;51.440;6.938;2022-10-16T01:11:13;13.80;99.90
12436;DHT22;6282;51.440;6.938;2022-10-16T01:13:45;13.70;99.90
12436;DHT22;6282;51.440;6.938;2022-10-16T01:16:17;13.70;99.90
12436;DHT22;6282;51.440;6.938;2022-10-16T01:18:53;13.70;99.90
12436;DHT22;6282;51.440;6.938;2022-10-16T01:21:24;13.70;99.90
12436;DHT22;6282;51.440;6.938;2022-10-16T01:24:01;13.60;99.90
12436;DHT22;6282;51.440;6.938;2022-10-16T01:26:41;13.60;99.90
12436;DHT22;6282;51.440;6.938;2022-10-16T01:29:19;13.60;99.90
12436;DHT22;6282;51.440;6.938;2022-10-16T01:31:49;13.50;99.90
12436;DHT22;6282;51.440;6.938;2022-10-16T01:34:20;13.50;99.90
12436;DHT22;6282;51.440;6.938;2022-10-16T01:36:52;13.60;99.90
12436;DHT22;6282;51.440;6.938;2022-10-16T01:39:22;13.50;99.90
12436;DHT22;6282;51.440;6.938;2022-10-16T01:41:56;13.40;99.90
12436;DHT22;6282;51.440;6.938;2022-10-16T01:44:29;13.40;99.90
12436;DHT22;6282;51.440;6.938;2022-10-16T01:46:58;13.50;99.90
12436;DHT22;6282;51.440;6.938;2022-10-16T01:49:29;13.40;99.90
12436;DHT22;6282;51.440;6.938;2022-10-16T01:51:59;13.60;99.90
12436;DHT22;6282;51.440;6.938;2022-10-16T01:54:29;13.60;99.90
12436;DHT22;6282;51.440;6.938;2022-10-16T01:56:58;13.70;99.90
12436;DHT22;6282;51.440;6.938;2022-10-16T01:59:30;13.60;99.90
12436;DHT22;6282;51.440;6.938;2022-10-16T02:02:00;13.60;99.90
12436;DHT22;6282;51.440;6.938;2022-10-16T02:04:31;13.60;99.90
12436;DHT22;6282;51.440;6.938;2022-10-16T02:06:58;13.70;99.90
12436;DHT22;6282;51.440;6.938;2022-10-16T02:09:26;13.70;99.90
12436;DHT22;6282;51.440;6.938;2022-10-16T02:11:54;13.70;99.90
12436;DHT22;6282;51.440;6.938;2022-10-16T02:14:21;13.80;99.90
12436;DHT22;6282;51.440;6.938;2022-10-16T02:16:51;13.80;99.90
12436;DHT22;6282;51.440;6.938;2022-10-16T02:19:20;13.70;99.90
12436;DHT22;6282;51.440;6.938;2022-10-16T02:21:57;13.60;99.90
12436;DHT22;6282;51.440;6.938;2022-10-16T02:24:33;13.60;99.90
12436;DHT22;6282;51.440;6.938;2022-10-16T02:27:04;13.50;99.90
12436;DHT22;6282;51.440;6.938;2022-10-16T02:29:35;13.50;99.90
12436;DHT22;6282;51.440;6.938;2022-10-16T02:32:07;13.50;99.90
12436;DHT22;6282;51.440;6.938;2022-10-16T02:34:36;13.50;99.90
12436;DHT22;6282;51.440;6.938;2022-10-16T02:37:04;13.80;99.90
12436;DHT22;6282;51.440;6.938;2022-10-16T02:39:33;13.70;99.90
12436;DHT22;6282;51.440;6.938;2022-10-16T02:42:00;13.60;99.90
12436;DHT22;6282;51.440;6.938;2022-10-16T02:44:27;13.70;99.90
12436;DHT22;6282;51.440;6.938;2022-10-16T02:46:53;13.80;99.90
12436;DHT22;6282;51.440;6.938;2022-10-16T02:49:21;13.70;99.90
12436;DHT22;6282;51.440;6.938;2022-10-16T02:51:48;13.70;99.90
12436;DHT22;6282;51.440;6.938;2022-10-16T02:54:15;13.70;99.90
12436;DHT22;6282;51.440;6.938;2022-10-16T02:56:42;13.70;99.90
12436;DHT22;6282;51.440;6.938;2022-10-16T02:59:09;13.70;99.90
12436;DHT22;6282;51.440;6.938;2022-10-16T03:01:35;13.70;99.90
12436;DHT22;6282;51.440;6.938;2022-10-16T03:04:03;13.80;99.90
12436;DHT22;6282;51.440;6.938;2022-10-16T03:06:31;13.80;99.90
12436;DHT22;6282;51.440;6.938;2022-10-16T03:08:58;13.80;99.90
12436;DHT22;6282;51.440;6.938;2022-10-16T03:11:24;13.80;99.90
12436;DHT22;6282;51.440;6.938;2022-10-16T03:13:52;13.80;99.90
12436;DHT22;6282;51.440;6.938;2022-10-16T03:16:18;13.80;99.90
12436;DHT22;6282;51.440;6.938;2022-10-16T03:18:47;13.90;99.90
12436;DHT22;6282;51.440;6.938;2022-10-16T03:21:14;13.80;99.90
12436;DHT22;6282;51.440;6.938;2022-10-16T03:23:42;13.80;99.90
12436;DHT22;6282;51.440;6.938;2022-10-16T03:26:09;13.80;99.90
12436;DHT22;6282;51.440;6.938;2022-10-16T03:28:36;13.70;99.90
12436;DHT22;6282;51.440;6.938;2022-10-16T03:31:03;13.70;99.90
12436;DHT22;6282;51.440;6.938;2022-10-16T03:33:30;13.70;99.90
12436;DHT22;6282;51.440;6.938;2022-10-16T03:35:56;13.70;99.90
12436;DHT22;6282;51.440;6.938;2022-10-16T03:38:23;13.70;99.90
12436;DHT22;6282;51.440;6.938;2022-10-16T03:40:51;13.70;99.90
12436;DHT22;6282;51.440;6.938;2022-10-16T03:43:18;13.60;99.90
12436;DHT22;6282;51.440;6.938;2022-10-16T03:45:45;13.50;99.90
12436;DHT22;6282;51.440;6.938;2022-10-16T03:48:18;13.50;99.90
12436;DHT22;6282;51.440;6.938;2022-10-16T03:50:45;13.50;99.90
12436;DHT22;6282;51.440;6.938;2022-10-16T03:53:13;13.50;99.90
12436;DHT22;6282;51.440;6.938;2022-10-16T03:55:41;13.50;99.90
12436;DHT22;6282;51.440;6.938;2022-10-16T03:58:18;13.50;99.90
12436;DHT22;6282;51.440;6.938;2022-10-16T04:03:49;13.40;99.90
12436;DHT22;6282;51.440;6.938;2022-10-16T04:06:16;13.40;99.90
12436;DHT22;6282;51.440;6.938;2022-10-16T04:08:43;13.40;99.90
12436;DHT22;6282;51.440;6.938;2022-10-16T04:11:12;13.30;99.90
12436;DHT22;6282;51.440;6.938;2022-10-16T04:13:41;13.30;99.90
12436;DHT22;6282;51.440;6.938;2022-10-16T04:16:08;13.30;99.90
12436;DHT22;6282;51.440;6.938;2022-10-16T04:18:34;13.30;99.90
12436;DHT22;6282;51.440;6.938;2022-10-16T04:21:05;13.20;99.90
12436;DHT22;6282;51.440;6.938;2022-10-16T04:23:32;13.20;99.90
12436;DHT22;6282;51.440;6.938;2022-10-16T04:25:59;13.30;99.90
12436;DHT22;6282;51.440;6.938;2022-10-16T04:28:26;13.30;99.90
12436;DHT22;6282;51.440;6.938;2022-10-16T04:30:55;13.30;99.90
12436;DHT22;6282;51.440;6.938;2022-10-16T04:33:27;13.30;99.90
12436;DHT22;6282;51.440;6.938;2022-10-16T04:35:57;13.30;99.90
12436;DHT22;6282;51.440;6.938;2022-10-16T04:38:24;13.30;99.90
12436;DHT22;6282;51.440;6.938;2022-10-16T04:41:05;13.20;99.90
12436;DHT22;6282;51.440;6.938;2022-10-16T04:43:33;13.20;99.90
12436;DHT22;6282;51.440;6.938;2022-10-16T04:46:01;13.20;99.90
12436;DHT22;6282;51.440;6.938;2022-10-16T04:48:30;13.20;99.90
12436;DHT22;6282;51.440;6.938;2022-10-16T04:50:56;13.10;99.90
12436;DHT22;6282;51.440;6.938;2022-10-16T04:53:23;13.10;99.90
12436;DHT22;6282;51.440;6.938;2022-10-16T04:55:50;13.10;99.90
12436;DHT22;6282;51.440;6.938;2022-10-16T04:58:17;13.20;99.90
12436;DHT22;6282;51.440;6.938;2022-10-16T05:00:44;13.20;99.90
12436;DHT22;6282;51.440;6.938;2022-10-16T05:03:13;13.10;99.90
12436;DHT22;6282;51.440;6.938;2022-10-16T05:05:42;13.20;99.90
12436;DHT22;6282;51.440;6.938;2022-10-16T05:08:10;13.20;99.90
12436;DHT22;6282;51.440;6.938;2022-10-16T05:10:37;13.20;99.90
12436;DHT22;6282;51.440;6.938;2022-10-16T05:13:03;13.20;99.90
12436;DHT22;6282;51.440;6.938;2022-10-16T05:15:47;13.20;99.90
12436;DHT22;6282;51.440;6.938;2022-10-16T05:18:15;13.20;99.90
12436;DHT22;6282;51.440;6.938;2022-10-16T05:20:42;13.20;99.90
12436;DHT22;6282;51.440;6.938;2022-10-16T05:23:09;13.20;99.90
12436;DHT22;6282;51.440;6.938;2022-10-16T05:25:37;13.10;99.90
12436;DHT22;6282;51.440;6.938;2022-10-16T05:28:04;13.20;99.90
12436;DHT22;6282;51.440;6.938;2022-10-16T05:30:31;13.20;99.90
12436;DHT22;6282;51.440;6.938;2022-10-16T05:32:57;13.10;99.90
12436;DHT22;6282;51.440;6.938;2022-10-16T05:35:25;13.30;99.90
12436;DHT22;6282;51.440;6.938;2022-10-16T05:37:52;13.10;99.90
12436;DHT22;6282;51.440;6.938;2022-10-16T05:40:19;13.30;99.90
12436;DHT22;6282;51.440;6.938;2022-10-16T05:42:46;13.20;99.90
12436;DHT22;6282;51.440;6.938;2022-10-16T05:45:13;13.10;99.90
12436;DHT22;6282;51.440;6.938;2022-10-16T05:47:40;13.10;99.90
12436;DHT22;6282;51.440;6.938;2022-10-16T05:50:07;13.10;99.90
12436;DHT22;6282;51.440;6.938;2022-10-16T05:52:35;13.20;99.90
12436;DHT22;6282;51.440;6.938;2022-10-16T05:55:03;13.20;99.90
12436;DHT22;6282;51.440;6.938;2022-10-16T05:57:29;13.20;99.90
12436;DHT22;6282;51.440;6.938;2022-10-16T05:59:56;13.10;99.90
12436;DHT22;6282;51.440;6.938;2022-10-16T06:02:23;13.10;99.90
12436;DHT22;6282;51.440;6.938;2022-10-16T06:04:51;13.20;99.90
12436;DHT22;6282;51.440;6.938;2022-10-16T06:07:19;13.10;99.90
12436;DHT22;6282;51.440;6.938;2022-10-16T06:09:49;13.10;99.90
12436;DHT22;6282;51.440;6.938;2022-10-16T06:12:16;13.10;99.90
12436;DHT22;6282;51.440;6.938;2022-10-16T06:14:44;13.10;99.90
12436;DHT22;6282;51.440;6.938;2022-10-16T06:17:12;13.10;99.90
12436;DHT22;6282;51.440;6.938;2022-10-16T06:19:39;13.10;99.90
12436;DHT22;6282;51.440;6.938;2022-10-16T06:22:06;13.10;99.90
12436;DHT22;6282;51.440;6.938;2022-10-16T06:24:33;13.10;99.90
12436;DHT22;6282;51.440;6.938;2022-10-16T06:27:01;13.10;99.90
12436;DHT22;6282;51.440;6.938;2022-10-16T06:29:29;13.20;99.90
12436;DHT22;6282;51.440;6.938;2022-10-16T06:31:56;13.20;99.90
12436;DHT22;6282;51.440;6.938;2022-10-16T06:34:23;13.30;99.90
12436;DHT22;6282;51.440;6.938;2022-10-16T06:36:49;13.30;99.90
12436;DHT22;6282;51.440;6.938;2022-10-16T06:39:16;13.40;99.90
12436;DHT22;6282;51.440;6.938;2022-10-16T06:41:43;13.40;99.90
12436;DHT22;6282;51.440;6.938;2022-10-16T06:44:11;13.40;99.90
12436;DHT22;6282;51.440;6.938;2022-10-16T06:46:38;13.50;99.90
12436;DHT22;6282;51.440;6.938;2022-10-16T06:49:05;13.50;99.90
12436;DHT22;6282;51.440;6.938;2022-10-16T06:51:31;13.50;99.90
12436;DHT22;6282;51.440;6.938;2022-10-16T06:54:01;13.70;99.90
12436;DHT22;6282;51.440;6.938;2022-10-16T06:56:28;13.60;99.90
12436;DHT22;6282;51.440;6.938;2022-10-16T06:58:56;13.60;99.90
12436;DHT22;6282;51.440;6.938;2022-10-16T07:01:24;13.60;99.90
12436;DHT22;6282;51.440;6.938;2022-10-16T07:03:51;13.60;99.90
12436;DHT22;6282;51.440;6.938;2022-10-16T07:06:20;13.60;99.90
12436;DHT22;6282;51.440;6.938;2022-10-16T07:08:48;13.60;99.90
12436;DHT22;6282;51.440;6.938;2022-10-16T07:11:16;13.50;99.90
12436;DHT22;6282;51.440;6.938;2022-10-16T07:13:44;13.60;99.90
12436;DHT22;6282;51.440;6.938;2022-10-16T07:16:13;13.60;99.90
12436;DHT22;6282;51.440;6.938;2022-10-16T07:18:42;13.70;99.90
12436;DHT22;6282;51.440;6.938;2022-10-16T07:21:12;13.60;99.90
12436;DHT22;6282;51.440;6.938;2022-10-16T07:23:40;13.60;99.90
12436;DHT22;6282;51.440;6.938;2022-10-16T07:26:07;13.60;99.90
12436;DHT22;6282;51.440;6.938;2022-10-16T07:28:34;13.60;99.90
12436;DHT22;6282;51.440;6.938;2022-10-16T07:31:01;13.70;99.90
12436;DHT22;6282;51.440;6.938;2022-10-16T07:33:29;13.60;99.90
12436;DHT22;6282;51.440;6.938;2022-10-16T07:35:57;13.70;99.90
12436;DHT22;6282;51.440;6.938;2022-10-16T07:38:24;14.00;99.90
12436;DHT22;6282;51.440;6.938;2022-10-16T07:40:56;14.30;99.90
12436;DHT22;6282;51.440;6.938;2022-10-16T07:43:23;16.20;99.90
12436;DHT22;6282;51.440;6.938;2022-10-16T07:45:51;18.10;99.90
12436;DHT22;6282;51.440;6.938;2022-10-16T07:48:18;19.10;99.90
12436;DHT22;6282;51.440;6.938;2022-10-16T07:50:45;19.10;99.90
12436;DHT22;6282;51.440;6.938;2022-10-16T07:53:14;16.50;99.90
12436;DHT22;6282;51.440;6.938;2022-10-16T07:55:41;15.60;99.90
12436;DHT22;6282;51.440;6.938;2022-10-16T07:58:08;18.30;99.90
12436;DHT22;6282;51.440;6.938;2022-10-16T08:00:36;19.50;99.90
12436;DHT22;6282;51.440;6.938;2022-10-16T08:03:03;19.90;99.90
12436;DHT22;6282;51.440;6.938;2022-10-16T08:05:31;19.60;99.90
12436;DHT22;6282;51.440;6.938;2022-10-16T08:07:58;20.10;99.90
12436;DHT22;6282;51.440;6.938;2022-10-16T08:10:28;19.70;99.90
12436;DHT22;6282;51.440;6.938;2022-10-16T08:12:55;20.10;99.90
12436;DHT22;6282;51.440;6.938;2022-10-16T08:15:22;21.40;99.90
12436;DHT22;6282;51.440;6.938;2022-10-16T08:17:56;21.50;99.90
12436;DHT22;6282;51.440;6.938;2022-10-16T08:20:24;20.90;99.90
12436;DHT22;6282;51.440;6.938;2022-10-16T08:22:51;20.60;99.90
12436;DHT22;6282;51.440;6.938;2022-10-16T08:25:18;20.30;99.90
12436;DHT22;6282;51.440;6.938;2022-10-16T08:27:46;21.40;99.90
12436;DHT22;6282;51.440;6.938;2022-10-16T08:30:13;20.30;99.90
12436;DHT22;6282;51.440;6.938;2022-10-16T08:32:41;20.50;99.90
12436;DHT22;6282;51.440;6.938;2022-10-16T08:35:08;20.50;99.90
12436;DHT22;6282;51.440;6.938;2022-10-16T08:37:35;20.40;99.90
12436;DHT22;6282;51.440;6.938;2022-10-16T08:40:04;19.80;99.90
12436;DHT22;6282;51.440;6.938;2022-10-16T08:42:41;17.40;99.90
12436;DHT22;6282;51.440;6.938;2022-10-16T08:45:26;17.10;99.90
12436;DHT22;6282;51.440;6.938;2022-10-16T08:48:08;16.90;99.90
12436;DHT22;6282;51.440;6.938;2022-10-16T08:50:39;16.80;99.90
12436;DHT22;6282;51.440;6.938;2022-10-16T08:53:07;16.60;99.90
12436;DHT22;6282;51.440;6.938;2022-10-16T08:55:42;16.70;99.90
12436;DHT22;6282;51.440;6.938;2022-10-16T08:58:12;16.60;99.90
12436;DHT22;6282;51.440;6.938;2022-10-16T09:00:43;16.70;99.90
12436;DHT22;6282;51.440;6.938;2022-10-16T09:03:17;16.80;99.90
12436;DHT22;6282;51.440;6.938;2022-10-16T09:06:15;16.50;99.90
12436;DHT22;6282;51.440;6.938;2022-10-16T09:08:52;16.50;99.90
12436;DHT22;6282;51.440;6.938;2022-10-16T09:11:26;16.50;99.90
12436;DHT22;6282;51.440;6.938;2022-10-16T09:14:02;16.30;99.90
12436;DHT22;6282;51.440;6.938;2022-10-16T09:16:38;16.30;99.90
12436;DHT22;6282;51.440;6.938;2022-10-16T09:19:15;16.30;99.90
12436;DHT22;6282;51.440;6.938;2022-10-16T09:21:44;16.50;99.90
12436;DHT22;6282;51.440;6.938;2022-10-16T09:24:15;16.60;99.90
12436;DHT22;6282;51.440;6.938;2022-10-16T09:26:42;16.50;99.90
12436;DHT22;6282;51.440;6.938;2022-10-16T09:29:11;16.60;99.90
12436;DHT22;6282;51.440;6.938;2022-10-16T09:31:40;16.50;99.90
12436;DHT22;6282;51.440;6.938;2022-10-16T09:34:16;16.50;99.90
12436;DHT22;6282;51.440;6.938;2022-10-16T09:36:45;16.70;99.90
12436;DHT22;6282;51.440;6.938;2022-10-16T09:39:12;16.60;99.90
12436;DHT22;6282;51.440;6.938;2022-10-16T09:41:40;16.70;99.90
12436;DHT22;6282;51.440;6.938;2022-10-16T09:44:18;16.80;99.90
12436;DHT22;6282;51.440;6.938;2022-10-16T09:46:47;16.70;99.90
12436;DHT22;6282;51.440;6.938;2022-10-16T09:49:22;16.70;99.90
12436;DHT22;6282;51.440;6.938;2022-10-16T09:51:50;16.70;99.90
12436;DHT22;6282;51.440;6.938;2022-10-16T09:54:20;16.80;99.90
12436;DHT22;6282;51.440;6.938;2022-10-16T09:56:48;17.10;99.90
12436;DHT22;6282;51.440;6.938;2022-10-16T09:59:19;17.20;99.90
12436;DHT22;6282;51.440;6.938;2022-10-16T10:01:49;17.30;99.90
12436;DHT22;6282;51.440;6.938;2022-10-16T10:04:17;17.20;99.90
12436;DHT22;6282;51.440;6.938;2022-10-16T10:06:46;17.30;99.90
12436;DHT22;6282;51.440;6.938;2022-10-16T10:09:20;17.50;99.90
12436;DHT22;6282;51.440;6.938;2022-10-16T10:11:51;17.40;99.90
12436;DHT22;6282;51.440;6.938;2022-10-16T10:14:23;17.20;99.90
12436;DHT22;6282;51.440;6.938;2022-10-16T10:17:01;17.40;99.90
12436;DHT22;6282;51.440;6.938;2022-10-16T10:19:28;17.30;99.90
12436;DHT22;6282;51.440;6.938;2022-10-16T10:21:55;17.40;99.90
12436;DHT22;6282;51.440;6.938;2022-10-16T10:24:21;17.60;99.90
12436;DHT22;6282;51.440;6.938;2022-10-16T10:26:53;17.80;99.90
12436;DHT22;6282;51.440;6.938;2022-10-16T10:29:31;18.00;99.90
12436;DHT22;6282;51.440;6.938;2022-10-16T10:32:14;18.00;99.90
12436;DHT22;6282;51.440;6.938;2022-10-16T10:34:54;17.70;99.90
12436;DHT22;6282;51.440;6.938;2022-10-16T10:37:36;18.00;50.90
12436;DHT22;6282;51.440;6.938;2022-10-16T10:40:15;18.10;1.00
12436;DHT22;6282;51.440;6.938;2022-10-16T10:42:49;18.10;99.90
12436;DHT22;6282;51.440;6.938;2022-10-16T10:45:26;18.30;99.90
12436;DHT22;6282;51.440;6.938;2022-10-16T10:48:03;18.40;1.00
12436;DHT22;6282;51.440;6.938;2022-10-16T10:50:38;18.60;99.90
12436;DHT22;6282;51.440;6.938;2022-10-16T10:53:10;18.40;1.00
12436;DHT22;6282;51.440;6.938;2022-10-16T10:55:43;18.40;99.90
12436;DHT22;6282;51.440;6.938;2022-10-16T10:58:23;18.30;99.90
12436;DHT22;6282;51.440;6.938;2022-10-16T11:00:57;18.30;1.00
12436;DHT22;6282;51.440;6.938;2022-10-16T11:03:40;18.40;1.00
12436;DHT22;6282;51.440;6.938;2022-10-16T11:06:13;18.50;1.00
12436;DHT22;6282;51.440;6.938;2022-10-16T11:08:45;18.20;67.00
12436;DHT22;6282;51.440;6.938;2022-10-16T11:11:16;18.40;1.00
12436;DHT22;6282;51.440;6.938;2022-10-16T11:13:54;18.50;1.00
12436;DHT22;6282;51.440;6.938;2022-10-16T11:16:26;18.50;99.50
12436;DHT22;6282;51.440;6.938;2022-10-16T11:18:59;18.30;1.00
12436;DHT22;6282;51.440;6.938;2022-10-16T11:21:30;18.20;99.90
12436;DHT22;6282;51.440;6.938;2022-10-16T11:24:00;18.20;1.00
12436;DHT22;6282;51.440;6.938;2022-10-16T11:26:34;18.40;86.40
12436;DHT22;6282;51.440;6.938;2022-10-16T11:29:02;18.40;99.90
12436;DHT22;6282;51.440;6.938;2022-10-16T11:31:36;18.50;1.00
12436;DHT22;6282;51.440;6.938;2022-10-16T11:34:12;18.50;99.90
12436;DHT22;6282;51.440;6.938;2022-10-16T11:36:46;18.60;99.90
12436;DHT22;6282;51.440;6.938;2022-10-16T11:39:20;18.70;1.00
12436;DHT22;6282;51.440;6.938;2022-10-16T11:41:49;18.70;1.00
12436;DHT22;6282;51.440;6.938;2022-10-16T11:44:34;18.80;1.00
12436;DHT22;6282;51.440;6.938;2022-10-16T11:47:10;18.60;99.90
12436;DHT22;6282;51.440;6.938;2022-10-16T11:49:40;18.60;99.90
12436;DHT22;6282;51.440;6.938;2022-10-16T11:52:16;18.70;99.90
12436;DHT22;6282;51.440;6.938;2022-10-16T11:54:49;18.90;99.90
12436;DHT22;6282;51.440;6.938;2022-10-16T11:57:20;19.10;1.00
12436;DHT22;6282;51.440;6.938;2022-10-16T11:59:53;18.70;1.00
12436;DHT22;6282;51.440;6.938;2022-10-16T12:02:42;18.70;1.00
12436;DHT22;6282;51.440;6.938;2022-10-16T12:05:23;18.90;1.00
12436;DHT22;6282;51.440;6.938;2022-10-16T12:07:59;18.90;1.00
12436;DHT22;6282;51.440;6.938;2022-10-16T12:10:29;18.90;1.00
12436;DHT22;6282;51.440;6.938;2022-10-16T12:13:03;18.80;1.00
12436;DHT22;6282;51.440;6.938;2022-10-16T12:15:31;18.90;99.90
12436;DHT22;6282;51.440;6.938;2022-10-16T12:17:59;18.70;99.90
12436;DHT22;6282;51.440;6.938;2022-10-16T12:20:29;18.60;99.90
12436;DHT22;6282;51.440;6.938;2022-10-16T12:22:59;18.70;99.90
12436;DHT22;6282;51.440;6.938;2022-10-16T12:25:29;18.40;1.00
12436;DHT22;6282;51.440;6.938;2022-10-16T12:28:01;18.20;1.00
12436;DHT22;6282;51.440;6.938;2022-10-16T12:30:31;18.10;99.90
12436;DHT22;6282;51.440;6.938;2022-10-16T12:33:01;18.10;1.00
12436;DHT22;6282;51.440;6.938;2022-10-16T12:35:31;18.10;99.90
12436;DHT22;6282;51.440;6.938;2022-10-16T12:38:15;18.10;99.90
12436;DHT22;6282;51.440;6.938;2022-10-16T12:40:43;18.20;99.90
12436;DHT22;6282;51.440;6.938;2022-10-16T12:43:13;18.60;96.40
12436;DHT22;6282;51.440;6.938;2022-10-16T12:45:59;18.80;99.90
12436;DHT22;6282;51.440;6.938;2022-10-16T12:48:26;18.50;1.00
12436;DHT22;6282;51.440;6.938;2022-10-16T12:50:55;18.40;99.90
12436;DHT22;6282;51.440;6.938;2022-10-16T12:53:24;18.20;99.90
12436;DHT22;6282;51.440;6.938;2022-10-16T12:55:59;18.50;1.00
12436;DHT22;6282;51.440;6.938;2022-10-16T12:58:52;18.50;99.90
12436;DHT22;6282;51.440;6.938;2022-10-16T13:01:34;18.80;1.00
12436;DHT22;6282;51.440;6.938;2022-10-16T13:04:26;19.00;99.90
12436;DHT22;6282;51.440;6.938;2022-10-16T13:07:15;18.70;55.90
12436;DHT22;6282;51.440;6.938;2022-10-16T13:09:58;18.70;99.90
12436;DHT22;6282;51.440;6.938;2022-10-16T13:12:51;18.40;99.90
12436;DHT22;6282;51.440;6.938;2022-10-16T13:15:33;18.20;1.00
12436;DHT22;6282;51.440;6.938;2022-10-16T13:18:07;18.20;1.00
12436;DHT22;6282;51.440;6.938;2022-10-16T13:20:58;18.30;99.90
12436;DHT22;6282;51.440;6.938;2022-10-16T13:23:34;18.10;99.90
12436;DHT22;6282;51.440;6.938;2022-10-16T13:26:12;18.00;99.90
12436;DHT22;6282;51.440;6.938;2022-10-16T13:28:41;18.10;1.00
12436;DHT22;6282;51.440;6.938;2022-10-16T13:31:15;18.20;1.00
12436;DHT22;6282;51.440;6.938;2022-10-16T13:33:55;18.20;1.00
12436;DHT22;6282;51.440;6.938;2022-10-16T13:36:26;18.40;1.00
12436;DHT22;6282;51.440;6.938;2022-10-16T13:39:09;18.20;1.00
12436;DHT22;6282;51.440;6.938;2022-10-16T13:41:37;18.00;99.90
12436;DHT22;6282;51.440;6.938;2022-10-16T13:44:07;17.90;99.90
12436;DHT22;6282;51.440;6.938;2022-10-16T13:46:37;18.00;98.00
12436;DHT22;6282;51.440;6.938;2022-10-16T13:49:14;18.10;99.90
12436;DHT22;6282;51.440;6.938;2022-10-16T13:51:41;18.10;99.90
12436;DHT22;6282;51.440;6.938;2022-10-16T13:54:22;18.20;99.90
12436;DHT22;6282;51.440;6.938;2022-10-16T13:56:49;18.20;99.90
12436;DHT22;6282;51.440;6.938;2022-10-16T13:59:24;18.20;1.00
12436;DHT22;6282;51.440;6.938;2022-10-16T14:01:53;18.20;1.00
12436;DHT22;6282;51.440;6.938;2022-10-16T14:04:25;18.40;99.90
12436;DHT22;6282;51.440;6.938;2022-10-16T14:06:55;18.40;37.30
12436;DHT22;6282;51.440;6.938;2022-10-16T14:09:24;18.40;1.00
12436;DHT22;6282;51.440;6.938;2022-10-16T14:11:54;18.30;1.00
12436;DHT22;6282;51.440;6.938;2022-10-16T14:14:22;18.20;1.00
12436;DHT22;6282;51.440;6.938;2022-10-16T14:16:50;18.30;99.90
12436;DHT22;6282;51.440;6.938;2022-10-16T14:19:20;18.10;1.00
12436;DHT22;6282;51.440;6.938;2022-10-16T14:21:50;18.20;1.00
12436;DHT22;6282;51.440;6.938;2022-10-16T14:24:26;18.10;1.00
12436;DHT22;6282;51.440;6.938;2022-10-16T14:26:53;18.00;1.00
12436;DHT22;6282;51.440;6.938;2022-10-16T14:29:23;18.10;99.90
12436;DHT22;6282;51.440;6.938;2022-10-16T14:31:57;18.00;1.00
12436;DHT22;6282;51.440;6.938;2022-10-16T14:34:26;18.00;99.90
12436;DHT22;6282;51.440;6.938;2022-10-16T14:36:55;18.00;99.90
12436;DHT22;6282;51.440;6.938;2022-10-16T14:39:23;18.00;1.00
12436;DHT22;6282;51.440;6.938;2022-10-16T14:41:54;17.90;99.90
12436;DHT22;6282;51.440;6.938;2022-10-16T14:44:26;18.00;1.00
12436;DHT22;6282;51.440;6.938;2022-10-16T14:46:54;18.10;1.00
12436;DHT22;6282;51.440;6.938;2022-10-16T14:49:22;18.10;1.00
12436;DHT22;6282;51.440;6.938;2022-10-16T14:51:50;18.00;99.90
12436;DHT22;6282;51.440;6.938;2022-10-16T14:54:19;17.90;99.90
12436;DHT22;6282;51.440;6.938;2022-10-16T14:56:48;17.90;99.90
12436;DHT22;6282;51.440;6.938;2022-10-16T14:59:19;17.80;99.90
12436;DHT22;6282;51.440;6.938;2022-10-16T15:01:46;17.90;70.10
12436;DHT22;6282;51.440;6.938;2022-10-16T15:04:13;18.00;1.00
12436;DHT22;6282;51.440;6.938;2022-10-16T15:06:41;17.90;1.00
12436;DHT22;6282;51.440;6.938;2022-10-16T15:09:07;17.90;99.90
12436;DHT22;6282;51.440;6.938;2022-10-16T15:11:36;17.80;99.90
12436;DHT22;6282;51.440;6.938;2022-10-16T15:14:03;17.50;99.90
12436;DHT22;6282;51.440;6.938;2022-10-16T15:16:30;17.50;1.00
12436;DHT22;6282;51.440;6.938;2022-10-16T15:18:57;17.50;99.90
12436;DHT22;6282;51.440;6.938;2022-10-16T15:21:27;17.30;99.90
12436;DHT22;6282;51.440;6.938;2022-10-16T15:23:54;17.10;99.90
12436;DHT22;6282;51.440;6.938;2022-10-16T15:26:23;16.90;99.90
12436;DHT22;6282;51.440;6.938;2022-10-16T15:28:51;16.90;99.90
12436;DHT22;6282;51.440;6.938;2022-10-16T15:31:18;16.80;99.90
12436;DHT22;6282;51.440;6.938;2022-10-16T15:33:50;16.80;99.90
12436;DHT22;6282;51.440;6.938;2022-10-16T15:36:27;16.70;99.90
12436;DHT22;6282;51.440;6.938;2022-10-16T15:38:54;16.70;99.90
12436;DHT22;6282;51.440;6.938;2022-10-16T15:41:22;16.60;99.90
12436;DHT22;6282;51.440;6.938;2022-10-16T15:43:51;16.60;99.90
12436;DHT22;6282;51.440;6.938;2022-10-16T15:46:19;16.50;99.90
12436;DHT22;6282;51.440;6.938;2022-10-16T15:48:47;16.50;99.90
12436;DHT22;6282;51.440;6.938;2022-10-16T15:51:14;16.40;99.90
12436;DHT22;6282;51.440;6.938;2022-10-16T15:53:41;16.40;99.90
12436;DHT22;6282;51.440;6.938;2022-10-16T15:56:09;16.30;99.90
12436;DHT22;6282;51.440;6.938;2022-10-16T15:58:37;16.30;99.90
12436;DHT22;6282;51.440;6.938;2022-10-16T16:01:05;16.20;99.90
12436;DHT22;6282;51.440;6.938;2022-10-16T16:03:35;16.20;99.90
12436;DHT22;6282;51.440;6.938;2022-10-16T16:06:04;16.10;99.90
12436;DHT22;6282;51.440;6.938;2022-10-16T16:08:33;16.10;99.90
12436;DHT22;6282;51.440;6.938;2022-10-16T16:11:00;16.10;99.90